createdAt,value
2022-09-09T00:01:59.218Z,14.68
2022-09-09T00:04:33.225Z,14.77
2022-09-09T00:07:10.297Z,14.82
2022-09-09T00:10:16.100Z,14.82
2022-09-09T00:13:03.438Z,14.76
2022-09-09T00:15:52.981Z,14.73
2022-09-09T00:18:27.149Z,14.75
2022-09-09T00:21:18.255Z,14.64
2022-09-09T00:23:53.879Z,14.60
2022-09-09T00:26:31.362Z,14.51
2022-09-09T00:29:13.108Z,14.43
2022-09-09T00:31:40.091Z,14.35
2022-09-09T00:34:27.254Z,14.30
2022-09-09T00:36:54.426Z,14.32
2022-09-09T00:39:38.986Z,14.25
2022-09-09T00:42:14.979Z,14.20
2022-09-09T00:45:02.817Z,14.17
2022-09-09T00:47:45.388Z,14.14
2022-09-09T00:50:15.151Z,14.02
2022-09-09T00:53:00.773Z,14.08
2022-09-09T00:55:55.422Z,14.03
2022-09-09T00:58:23.236Z,14.01
2022-09-09T01:01:12.098Z,14.02
2022-09-09T01:03:54.812Z,14.02
2022-09-09T01:06:33.060Z,13.98
2022-09-09T01:09:32.976Z,14.03
2022-09-09T01:12:11.343Z,14.01
2022-09-09T01:14:38.133Z,13.92
2022-09-09T01:17:20.459Z,13.89
2022-09-09T01:19:57.455Z,13.85
2022-09-09T01:22:35.917Z,13.88
2022-09-09T01:25:22.382Z,13.94
2022-09-09T01:27:51.049Z,13.90
2022-09-09T01:30:18.912Z,13.85
2022-09-09T01:32:48.041Z,13.83
2022-09-09T01:35:39.460Z,13.77
2022-09-09T01:38:07.347Z,13.69
2022-09-09T01:40:34.767Z,13.73
2022-09-09T01:43:02.702Z,13.58
2022-09-09T01:45:30.022Z,13.62
2022-09-09T01:47:57.563Z,13.64
2022-09-09T01:50:24.797Z,13.65
2022-09-09T01:52:54.986Z,13.59
2022-09-09T01:55:34.619Z,13.54
2022-09-09T01:58:04.529Z,13.52
2022-09-09T02:00:33.052Z,13.51
2022-09-09T02:03:21.879Z,13.46
2022-09-09T02:05:51.536Z,13.44
2022-09-09T02:08:25.601Z,13.40
2022-09-09T02:10:59.866Z,13.37
2022-09-09T02:13:26.895Z,13.38
2022-09-09T02:15:57.571Z,13.36
2022-09-09T02:18:33.970Z,13.40
2022-09-09T02:21:01.587Z,13.37
2022-09-09T02:23:29.724Z,13.42
2022-09-09T02:25:58.998Z,13.40
2022-09-09T02:28:27.953Z,13.42
2022-09-09T02:30:56.113Z,13.34
2022-09-09T02:33:26.635Z,13.36
2022-09-09T02:35:54.098Z,13.34
2022-09-09T02:38:21.840Z,13.33
2022-09-09T02:40:49.609Z,13.32
2022-09-09T02:43:19.658Z,13.33
2022-09-09T02:45:58.529Z,13.33
2022-09-09T02:48:37.595Z,13.29
2022-09-09T02:51:08.615Z,13.25
2022-09-09T02:53:48.436Z,13.31
2022-09-09T02:56:21.002Z,13.35
2022-09-09T02:58:47.583Z,13.24
2022-09-09T03:01:15.181Z,13.21
2022-09-09T03:03:43.473Z,13.20
2022-09-09T03:06:11.025Z,13.20
2022-09-09T03:08:49.213Z,13.21
2022-09-09T03:11:17.953Z,13.24
2022-09-09T03:13:44.697Z,13.24
2022-09-09T03:16:11.265Z,13.24
2022-09-09T03:18:37.732Z,13.36
2022-09-09T03:21:04.287Z,13.30
2022-09-09T03:23:30.933Z,13.30
2022-09-09T03:25:59.569Z,13.34
2022-09-09T03:28:31.977Z,13.29
2022-09-09T03:31:03.089Z,13.25
2022-09-09T03:33:30.503Z,13.25
2022-09-09T03:35:57.686Z,13.19
2022-09-09T03:38:24.992Z,13.18
2022-09-09T03:40:53.872Z,13.15
2022-09-09T03:43:21.160Z,13.12
2022-09-09T03:45:49.319Z,13.09
2022-09-09T03:48:17.221Z,13.16
2022-09-09T03:50:48.375Z,13.24
2022-09-09T03:53:16.233Z,13.14
2022-09-09T03:56:01.655Z,13.13
2022-09-09T03:58:28.985Z,13.14
2022-09-09T04:01:00.469Z,13.23
2022-09-09T04:03:28.268Z,13.16
2022-09-09T04:05:56.440Z,13.13
2022-09-09T04:08:27.363Z,13.19
2022-09-09T04:10:58.106Z,13.17
2022-09-09T04:13:25.631Z,13.21
2022-09-09T04:15:53.798Z,13.19
2022-09-09T04:18:20.947Z,13.15
2022-09-09T04:20:51.531Z,13.18
2022-09-09T04:23:22.559Z,13.24
2022-09-09T04:25:50.918Z,13.34
2022-09-09T04:28:18.678Z,13.35
2022-09-09T04:30:45.621Z,13.43
2022-09-09T04:33:14.446Z,13.51
2022-09-09T04:35:45.193Z,13.60
2022-09-09T04:38:13.852Z,13.59
2022-09-09T04:40:43.922Z,13.57
2022-09-09T04:43:16.120Z,13.67
2022-09-09T04:45:43.303Z,13.72
2022-09-09T04:48:10.615Z,13.79
2022-09-09T04:50:37.254Z,13.85
2022-09-09T04:53:08.523Z,13.95
2022-09-09T04:55:36.364Z,13.95
2022-09-09T04:58:07.319Z,13.94
2022-09-09T05:00:36.802Z,13.89
2022-09-09T05:03:05.324Z,13.87
2022-09-09T05:05:35.189Z,13.89
2022-09-09T05:08:04.260Z,13.89
2022-09-09T05:10:33.231Z,14.03
2022-09-09T05:12:59.894Z,14.10
2022-09-09T05:15:26.557Z,14.18
2022-09-09T05:17:54.178Z,14.18
2022-09-09T05:20:21.151Z,14.30
2022-09-09T05:22:48.669Z,14.27
2022-09-09T05:25:15.122Z,14.40
2022-09-09T05:27:41.564Z,14.53
2022-09-09T05:30:09.103Z,14.61
2022-09-09T05:32:35.611Z,14.69
2022-09-09T05:35:02.842Z,14.72
2022-09-09T05:37:31.199Z,14.79
2022-09-09T05:39:58.843Z,14.88
2022-09-09T05:42:25.726Z,15.09
2022-09-09T05:44:55.269Z,15.06
2022-09-09T05:47:21.837Z,15.17
2022-09-09T05:49:48.170Z,15.18
2022-09-09T05:52:14.746Z,15.36
2022-09-09T05:54:43.600Z,15.34
2022-09-09T05:57:10.128Z,15.48
2022-09-09T05:59:36.660Z,15.56
2022-09-09T06:02:03.100Z,15.54
2022-09-09T06:04:29.559Z,15.69
2022-09-09T06:06:55.897Z,15.81
2022-09-09T06:09:22.427Z,15.95
2022-09-09T06:11:48.777Z,16.28
2022-09-09T06:14:15.677Z,16.51
2022-09-09T06:16:45.026Z,16.96
2022-09-09T06:19:13.148Z,17.58
2022-09-09T06:21:39.905Z,17.76
2022-09-09T06:24:08.248Z,17.73
2022-09-09T06:26:41.529Z,17.66
2022-09-09T06:29:08.298Z,17.76
2022-09-09T06:31:36.101Z,18.03
2022-09-09T06:34:03.369Z,18.21
2022-09-09T06:36:32.135Z,18.45
2022-09-09T06:38:58.835Z,18.03
2022-09-09T06:41:29.837Z,18.12
2022-09-09T06:43:56.695Z,18.61
2022-09-09T06:46:33.850Z,18.79
2022-09-09T06:49:00.891Z,18.86
2022-09-09T06:51:32.188Z,19.40
2022-09-09T06:54:00.097Z,20.46
2022-09-09T06:56:42.986Z,20.93
2022-09-09T06:59:10.174Z,20.70
2022-09-09T07:01:39.180Z,20.11
2022-09-09T07:04:08.665Z,19.68
2022-09-09T07:06:37.063Z,19.74
2022-09-09T07:09:07.984Z,19.62
2022-09-09T07:11:39.072Z,19.48
2022-09-09T07:14:08.772Z,19.74
2022-09-09T07:16:38.295Z,19.92
2022-09-09T07:19:05.214Z,20.01
2022-09-09T07:21:33.317Z,20.02
2022-09-09T07:23:59.895Z,19.56
2022-09-09T07:26:30.047Z,20.40
2022-09-09T07:28:58.375Z,21.63
2022-09-09T07:31:28.101Z,22.80
2022-09-09T07:33:54.974Z,23.60
2022-09-09T07:36:24.251Z,25.12
2022-09-09T07:38:56.101Z,24.82
2022-09-09T07:41:33.045Z,25.59
2022-09-09T07:43:59.691Z,27.03
2022-09-09T07:46:27.350Z,27.98
2022-09-09T07:48:56.918Z,29.90
2022-09-09T07:51:26.898Z,30.00
2022-09-09T07:53:55.137Z,30.97
2022-09-09T07:56:24.712Z,30.40
2022-09-09T07:58:52.668Z,31.08
2022-09-09T08:01:24.962Z,30.23
2022-09-09T08:03:57.181Z,28.79
2022-09-09T08:06:24.447Z,28.17
2022-09-09T08:08:51.922Z,27.51
2022-09-09T08:11:18.566Z,26.07
2022-09-09T08:13:45.402Z,25.63
2022-09-09T08:16:17.411Z,24.71
2022-09-09T08:18:44.165Z,24.54
2022-09-09T08:21:13.444Z,23.99
2022-09-09T08:23:42.169Z,23.88
2022-09-09T08:26:14.605Z,24.29
2022-09-09T08:28:41.643Z,25.80
2022-09-09T08:31:14.446Z,25.43
2022-09-09T08:33:42.179Z,25.46
2022-09-09T08:36:11.211Z,24.46
2022-09-09T08:38:38.548Z,23.78
2022-09-09T08:41:16.333Z,23.81
2022-09-09T08:43:44.563Z,23.75
2022-09-09T08:46:19.087Z,24.70
2022-09-09T08:49:02.975Z,24.93
2022-09-09T08:51:31.833Z,25.75
2022-09-09T08:54:01.570Z,26.38
2022-09-09T08:56:29.446Z,26.46
2022-09-09T08:58:58.195Z,25.72
2022-09-09T09:01:37.170Z,25.66
2022-09-09T09:04:33.543Z,25.55
2022-09-09T09:07:05.686Z,25.14
2022-09-09T09:09:41.156Z,23.38
2022-09-09T09:12:25.388Z,23.81
2022-09-09T09:14:52.069Z,23.70
2022-09-09T09:17:20.771Z,23.08
2022-09-09T09:19:48.977Z,22.82
2022-09-09T09:22:21.779Z,22.79
2022-09-09T09:25:05.006Z,22.71
2022-09-09T09:27:47.530Z,22.12
2022-09-09T09:30:29.507Z,22.28
2022-09-09T09:33:02.966Z,22.03
2022-09-09T09:35:29.570Z,22.05
2022-09-09T09:40:56.001Z,22.39
2022-09-09T09:43:36.327Z,22.05
2022-09-09T09:46:17.249Z,22.41
2022-09-09T09:48:46.544Z,22.90
2022-09-09T09:51:16.948Z,23.11
2022-09-09T09:53:43.757Z,23.81
2022-09-09T09:56:12.018Z,25.00
2022-09-09T09:58:45.661Z,27.73
2022-09-09T10:01:30.510Z,28.04
2022-09-09T10:04:03.080Z,29.91
2022-09-09T10:06:38.495Z,31.55
2022-09-09T10:09:22.104Z,32.73
2022-09-09T10:11:54.388Z,31.12
2022-09-09T10:14:23.144Z,28.56
2022-09-09T10:16:56.744Z,31.39
2022-09-09T10:19:34.826Z,33.62
2022-09-09T10:22:07.715Z,32.53
2022-09-09T10:24:53.222Z,29.85
2022-09-09T10:27:20.037Z,31.79
2022-09-09T10:30:13.368Z,31.76
2022-09-09T10:32:54.058Z,31.73
2022-09-09T10:35:32.063Z,31.85
2022-09-09T10:38:24.156Z,30.43
2022-09-09T10:40:54.137Z,30.42
2022-09-09T10:43:59.682Z,29.82
2022-09-09T10:46:45.340Z,31.18
2022-09-09T10:49:36.241Z,31.63
2022-09-09T10:52:27.008Z,31.62
2022-09-09T10:55:11.251Z,31.29
2022-09-09T10:57:45.208Z,32.64
2022-09-09T11:00:18.992Z,31.54
2022-09-09T11:02:45.840Z,31.86
2022-09-09T11:05:34.868Z,31.61
2022-09-09T11:08:11.136Z,32.99
2022-09-09T11:11:00.736Z,33.02
2022-09-09T11:14:13.004Z,30.20
2022-09-09T11:16:58.643Z,29.19
2022-09-09T11:19:35.188Z,28.34
2022-09-09T11:22:30.508Z,27.52
2022-09-09T11:25:12.379Z,25.92
2022-09-09T11:27:54.844Z,25.71
2022-09-09T11:30:51.319Z,24.96
2022-09-09T11:33:29.367Z,24.31
2022-09-09T11:36:17.560Z,23.39
2022-09-09T11:38:48.515Z,22.25
2022-09-09T11:41:20.993Z,21.11
2022-09-09T11:43:55.853Z,20.15
2022-09-09T11:46:34.991Z,20.18
2022-09-09T11:49:06.317Z,20.17
2022-09-09T11:51:34.177Z,20.05
2022-09-09T11:54:30.248Z,20.19
2022-09-09T11:56:57.727Z,21.55
2022-09-09T11:59:31.168Z,22.81
2022-09-09T12:02:13.116Z,23.96
2022-09-09T12:04:55.707Z,24.78
2022-09-09T12:07:27.086Z,25.06
2022-09-09T12:09:57.846Z,24.79
2022-09-09T12:12:33.025Z,23.55
2022-09-09T12:15:07.504Z,23.72
2022-09-09T12:17:43.394Z,24.71
2022-09-09T12:20:28.506Z,25.98
2022-09-09T12:23:20.064Z,25.78
2022-09-09T12:26:18.702Z,25.63
2022-09-09T12:29:06.414Z,24.66
2022-09-09T12:32:04.211Z,24.02
2022-09-09T12:34:42.258Z,24.63
2022-09-09T12:37:20.289Z,25.67
2022-09-09T12:39:52.152Z,27.36
2022-09-09T12:42:22.599Z,26.83
2022-09-09T12:44:56.300Z,26.67
2022-09-09T12:47:35.998Z,26.33
2022-09-09T12:50:02.798Z,26.47
2022-09-09T12:52:37.881Z,27.81
2022-09-09T12:55:06.214Z,28.53
2022-09-09T12:57:39.910Z,28.97
2022-09-09T13:00:20.206Z,27.77
2022-09-09T13:02:58.047Z,27.54
2022-09-09T13:05:39.852Z,27.85
2022-09-09T13:08:08.486Z,27.89
2022-09-09T13:11:01.760Z,27.68
2022-09-09T13:13:31.762Z,27.43
2022-09-09T13:16:01.008Z,28.06
2022-09-09T13:18:39.542Z,29.13
2022-09-09T13:21:06.146Z,30.05
2022-09-09T13:23:37.890Z,29.86
2022-09-09T13:26:28.894Z,30.10
2022-09-09T13:29:10.621Z,29.75
2022-09-09T13:31:38.812Z,29.83
2022-09-09T13:34:14.130Z,29.07
2022-09-09T13:36:42.535Z,29.40
2022-09-09T13:39:19.821Z,29.04
2022-09-09T13:41:49.464Z,28.88
2022-09-09T13:44:23.970Z,28.95
2022-09-09T13:47:24.307Z,28.93
2022-09-09T13:49:50.775Z,27.61
2022-09-09T13:52:19.712Z,27.13
2022-09-09T13:54:53.449Z,26.67
2022-09-09T13:57:22.392Z,26.59
2022-09-09T14:00:05.814Z,26.44
2022-09-09T14:02:34.645Z,25.85
2022-09-09T14:05:01.126Z,25.34
2022-09-09T14:07:27.686Z,25.58
2022-09-09T14:09:56.489Z,25.55
2022-09-09T14:12:22.805Z,25.65
2022-09-09T14:14:49.173Z,25.58
2022-09-09T14:17:15.880Z,25.60
2022-09-09T14:19:43.488Z,25.67
2022-09-09T14:22:11.618Z,25.89
2022-09-09T14:24:38.077Z,25.92
2022-09-09T14:27:04.416Z,26.18
2022-09-09T14:29:31.013Z,26.25
2022-09-09T14:32:01.923Z,26.71
2022-09-09T14:34:28.300Z,26.82
2022-09-09T14:36:54.645Z,26.87
2022-09-09T14:39:20.969Z,27.04
2022-09-09T14:41:47.374Z,27.13
2022-09-09T14:44:13.692Z,27.44
2022-09-09T14:46:40.002Z,27.53
2022-09-09T14:49:06.446Z,27.55
2022-09-09T14:51:32.864Z,27.08
2022-09-09T14:54:00.437Z,27.50
2022-09-09T14:56:29.206Z,27.49
2022-09-09T14:58:57.027Z,27.21
2022-09-09T15:01:24.728Z,26.73
2022-09-09T15:03:53.439Z,26.75
2022-09-09T15:06:21.378Z,26.40
2022-09-09T15:08:51.310Z,26.64
2022-09-09T15:11:17.878Z,27.13
2022-09-09T15:13:44.927Z,27.55
2022-09-09T15:16:14.217Z,27.60
2022-09-09T15:18:43.707Z,27.51
2022-09-09T15:21:15.178Z,26.93
2022-09-09T15:23:41.595Z,26.86
2022-09-09T15:26:10.196Z,26.82
2022-09-09T15:28:38.882Z,26.69
2022-09-09T15:31:15.394Z,26.62
2022-09-09T15:33:42.269Z,26.31
2022-09-09T15:36:19.474Z,26.41
2022-09-09T15:38:46.410Z,26.37
2022-09-09T15:41:14.334Z,26.02
2022-09-09T15:43:45.789Z,26.01
2022-09-09T15:46:28.233Z,25.54
2022-09-09T15:49:00.085Z,25.58
2022-09-09T15:51:43.894Z,25.02
2022-09-09T15:54:19.349Z,25.21
2022-09-09T15:56:47.533Z,24.95
2022-09-09T15:59:15.723Z,24.43
2022-09-09T16:01:43.124Z,23.92
2022-09-09T16:04:09.607Z,23.40
2022-09-09T16:06:36.024Z,23.27
2022-09-09T16:09:05.149Z,23.15
2022-09-09T16:11:34.662Z,22.66
2022-09-09T16:14:01.244Z,22.55
2022-09-09T16:16:29.817Z,22.26
2022-09-09T16:19:08.215Z,22.12
2022-09-09T16:21:38.551Z,21.96
2022-09-09T16:24:06.236Z,22.13
2022-09-09T16:26:34.881Z,22.07
2022-09-09T16:29:02.159Z,22.15
2022-09-09T16:31:29.613Z,22.00
2022-09-09T16:33:56.410Z,22.04
2022-09-09T16:36:24.970Z,22.07
2022-09-09T16:38:56.459Z,22.11
2022-09-09T16:41:23.091Z,22.18
2022-09-09T16:44:06.360Z,22.24
2022-09-09T16:46:37.653Z,22.38
2022-09-09T16:49:06.119Z,22.41
2022-09-09T16:51:41.028Z,22.34
2022-09-09T16:54:09.272Z,22.49
2022-09-09T16:56:39.017Z,22.52
2022-09-09T16:59:08.172Z,22.33
2022-09-09T17:01:39.606Z,22.34
2022-09-09T17:04:08.842Z,22.18
2022-09-09T17:06:35.800Z,22.26
2022-09-09T17:09:07.738Z,22.15
2022-09-09T17:11:34.530Z,21.99
2022-09-09T17:14:02.322Z,21.73
2022-09-09T17:16:31.114Z,21.53
2022-09-09T17:18:59.557Z,21.50
2022-09-09T17:21:27.122Z,21.24
2022-09-09T17:23:55.107Z,21.17
2022-09-09T17:26:23.819Z,20.88
2022-09-09T17:28:50.186Z,20.65
2022-09-09T17:31:18.687Z,20.59
2022-09-09T17:33:47.023Z,20.45
2022-09-09T17:36:15.261Z,20.25
2022-09-09T17:38:43.493Z,20.11
2022-09-09T17:41:16.057Z,20.11
2022-09-09T17:43:43.390Z,20.14
2022-09-09T17:46:17.903Z,20.06
2022-09-09T17:48:45.509Z,19.99
2022-09-09T17:51:19.788Z,19.89
2022-09-09T17:53:49.008Z,19.84
2022-09-09T17:56:17.653Z,19.67
2022-09-09T17:58:45.197Z,19.46
2022-09-09T18:01:15.135Z,19.37
2022-09-09T18:03:44.739Z,19.30
2022-09-09T18:06:19.064Z,19.23
2022-09-09T18:08:53.500Z,19.11
2022-09-09T18:11:21.598Z,19.18
2022-09-09T18:13:53.188Z,19.09
2022-09-09T18:16:20.332Z,19.07
2022-09-09T18:18:47.106Z,19.10
2022-09-09T18:21:13.780Z,19.00
2022-09-09T18:23:42.808Z,19.07
2022-09-09T18:26:21.426Z,19.00
2022-09-09T18:28:49.921Z,18.96
2022-09-09T18:31:18.024Z,18.94
2022-09-09T18:33:46.461Z,18.95
2022-09-09T18:36:15.962Z,18.94
2022-09-09T18:38:43.102Z,18.89
2022-09-09T18:41:14.307Z,18.93
2022-09-09T18:43:42.462Z,18.88
2022-09-09T18:46:09.559Z,18.78
2022-09-09T18:48:36.379Z,18.78
2022-09-09T18:51:04.749Z,18.72
2022-09-09T18:53:31.641Z,18.82
2022-09-09T18:56:04.070Z,18.75
2022-09-09T18:58:32.597Z,18.71
2022-09-09T19:01:00.264Z,18.62
2022-09-09T19:03:27.760Z,18.56
2022-09-09T19:05:54.497Z,18.47
2022-09-09T19:08:21.191Z,18.37
2022-09-09T19:10:48.290Z,18.42
2022-09-09T19:13:15.411Z,18.45
2022-09-09T19:15:41.957Z,18.45
2022-09-09T19:18:08.842Z,18.35
2022-09-09T19:20:35.259Z,18.33
2022-09-09T19:23:02.198Z,18.27
2022-09-09T19:25:28.940Z,18.18
2022-09-09T19:27:55.453Z,18.10
2022-09-09T19:30:22.044Z,18.09
2022-09-09T19:32:53.690Z,18.02
2022-09-09T19:35:20.810Z,18.01
2022-09-09T19:37:47.622Z,18.00
2022-09-09T19:40:14.295Z,18.05
2022-09-09T19:42:40.998Z,18.08
2022-09-09T19:45:10.462Z,18.06
2022-09-09T19:47:36.864Z,18.03
2022-09-09T19:50:05.645Z,18.06
2022-09-09T19:52:32.160Z,18.05
2022-09-09T19:54:59.371Z,18.09
2022-09-09T19:57:30.186Z,18.11
2022-09-09T19:59:57.413Z,18.09
2022-09-09T20:02:25.132Z,18.08
2022-09-09T20:04:51.872Z,17.96
2022-09-09T20:07:19.113Z,17.87
2022-09-09T20:09:46.029Z,17.81
2022-09-09T20:12:12.406Z,17.81
2022-09-09T20:14:39.991Z,17.79
2022-09-09T20:17:07.050Z,17.77
2022-09-09T20:19:33.459Z,17.80
2022-09-09T20:22:00.369Z,17.85
2022-09-09T20:24:26.802Z,17.84
2022-09-09T20:26:53.223Z,17.98
2022-09-09T20:29:20.146Z,18.16
2022-09-09T20:31:46.884Z,18.04
2022-09-09T20:34:15.649Z,17.86
2022-09-09T20:36:42.629Z,17.91
2022-09-09T20:39:11.906Z,17.88
2022-09-09T20:41:40.033Z,17.87
2022-09-09T20:44:12.445Z,17.97
2022-09-09T20:46:41.329Z,17.90
2022-09-09T20:49:09.904Z,17.84
2022-09-09T20:51:37.241Z,17.81
2022-09-09T20:54:05.417Z,17.92
2022-09-09T20:56:40.762Z,17.86
2022-09-09T20:59:12.095Z,17.87
2022-09-09T21:01:39.433Z,17.89
2022-09-09T21:04:09.674Z,17.83
2022-09-09T21:06:36.401Z,17.78
2022-09-09T21:09:03.158Z,17.78
2022-09-09T21:11:29.490Z,17.85
2022-09-09T21:13:56.423Z,17.82
2022-09-09T21:16:22.790Z,17.77
2022-09-09T21:18:49.741Z,17.84
2022-09-09T21:21:19.165Z,17.81
2022-09-09T21:23:47.557Z,17.72
2022-09-09T21:26:14.259Z,17.71
2022-09-09T21:28:40.894Z,17.71
2022-09-09T21:31:07.512Z,17.76
2022-09-09T21:33:34.281Z,17.73
2022-09-09T21:36:07.634Z,17.74
2022-09-09T21:38:34.797Z,17.62
2022-09-09T21:41:05.442Z,17.60
2022-09-09T21:43:32.427Z,17.66
2022-09-09T21:45:58.859Z,17.65
2022-09-09T21:48:26.267Z,17.60
2022-09-09T21:50:53.085Z,17.52
2022-09-09T21:53:20.244Z,17.42
2022-09-09T21:55:48.511Z,17.28
2022-09-09T21:58:15.677Z,17.21
2022-09-09T22:00:45.540Z,17.44
2022-09-09T22:03:16.026Z,17.33
2022-09-09T22:05:43.969Z,17.25
2022-09-09T22:08:12.164Z,17.15
2022-09-09T22:10:40.441Z,17.07
2022-09-09T22:13:07.274Z,16.98
2022-09-09T22:15:34.190Z,16.95
2022-09-09T22:18:04.561Z,16.86
2022-09-09T22:20:33.306Z,16.76
2022-09-09T22:23:02.794Z,16.74
2022-09-09T22:25:36.868Z,16.72
2022-09-09T22:28:05.536Z,16.74
2022-09-09T22:30:32.204Z,16.67
2022-09-09T22:32:58.650Z,16.63
2022-09-09T22:35:25.057Z,16.62
2022-09-09T22:37:51.456Z,16.53
2022-09-09T22:40:17.910Z,16.51
2022-09-09T22:42:44.361Z,16.56
2022-09-09T22:45:11.664Z,16.48
2022-09-09T22:47:42.363Z,16.55
2022-09-09T22:50:09.785Z,16.49
2022-09-09T22:52:37.031Z,16.59
2022-09-09T22:55:03.806Z,16.55
2022-09-09T22:57:31.090Z,16.52
2022-09-09T22:59:57.426Z,16.52
2022-09-09T23:02:24.015Z,16.39
2022-09-09T23:04:51.314Z,16.36
2022-09-09T23:07:23.406Z,16.25
2022-09-09T23:09:49.772Z,16.18
2022-09-09T23:12:18.844Z,16.15
2022-09-09T23:14:45.752Z,16.13
2022-09-09T23:17:14.928Z,16.08
2022-09-09T23:19:41.794Z,16.30
2022-09-09T23:22:08.995Z,16.20
2022-09-09T23:24:36.434Z,16.09
2022-09-09T23:27:03.686Z,16.03
2022-09-09T23:29:30.382Z,15.94
2022-09-09T23:31:57.448Z,15.79
2022-09-09T23:34:23.982Z,15.75
2022-09-09T23:36:50.986Z,15.68
2022-09-09T23:39:18.056Z,15.58
2022-09-09T23:41:44.811Z,15.53
2022-09-09T23:44:12.916Z,15.44
2022-09-09T23:46:39.957Z,15.39
2022-09-09T23:49:08.521Z,15.36
2022-09-09T23:51:35.977Z,15.30
2022-09-09T23:54:04.919Z,15.25
2022-09-09T23:56:34.082Z,15.17
2022-09-09T23:59:01.473Z,15.24
